This is the latest recevied weather packets stored in our database for station/object N4OGP-WX. If no packets are shown the sender has not sent any weather packets the latest 10 day(s).
| Time | Temp. | Humidity | Pressure | Rain* | Wind** | Luminosity | Snow |
|---|---|---|---|---|---|---|---|
| 1778288819 | 20° C | 95% | 1010.8 hPa | 0 mm | - | - | - |
| 1778288729 | 19.44° C | 95% | 1010.8 hPa | 0 mm | - | - | - |
| 1778288669 | 23.89° C | 42% | 1020.4 hPa | 0 mm | - | - | - |
| 1778288579 | 19.44° C | 95% | 1010.8 hPa | 0 mm | - | - | - |
| 1778288519 | 19.44° C | 95% | 1010.9 hPa | 0 mm | - | - | - |
| 1778288459 | 23.89° C | 42% | 1020.4 hPa | 0 mm | - | - | - |
| 1778288369 | 23.89° C | 42% | 1020.4 hPa | 0 mm | - | - | - |
| 1778288309 | 20° C | 95% | 1010.9 hPa | 0 mm | - | - | - |
| 1778288219 | 20° C | 95% | 1010.9 hPa | 0 mm | - | - | - |
| 1778288159 | 20° C | 94% | 1010.8 hPa | 0 mm | - | - | - |
| 1778288099 | 23.89° C | 42% | 1020.4 hPa | 0 mm | - | - | - |
| 1778288009 | 20° C | 94% | 1010.7 hPa | 0 mm | - | - | - |
| 1778287949 | 23.89° C | 42% | 1020.4 hPa | 0 mm | - | - | - |
| 1778287889 | 20° C | 94% | 1010.6 hPa | 0 mm | - | - | - |
| 1778287829 | 23.89° C | 42% | 1020.4 hPa | 0 mm | - | - | - |
| 1778287769 | 20° C | 94% | 1010.4 hPa | 0 mm | - | - | - |
| 1778287679 | 23.89° C | 42% | 1020.4 hPa | 0 mm | - | - | - |
| 1778287589 | 23.89° C | 42% | 1020.4 hPa | 0 mm | - | - | - |
| 1778287529 | 23.89° C | 42% | 1020.4 hPa | 0 mm | - | - | - |
| 1778287439 | 23.89° C | 42% | 1020.4 hPa | 0 mm | - | - | - |
| 1778287379 | 20° C | 94% | 1010.5 hPa | 0 mm | - | - | - |
| 1778287289 | 20° C | 94% | 1010.7 hPa | 0 mm | - | - | - |
| 1778287229 | 20° C | 94% | 1010.7 hPa | 0 mm | - | - | - |
| 1778287169 | 23.89° C | 42% | 1020.4 hPa | 0 mm | - | - | - |
| 1778287079 | 23.89° C | 42% | 1020.4 hPa | 0 mm | - | - | - |
* Rain latest hour (hover to see other rain measurements)
** Current wind speed in m/s (hover to see current wind gust speed)